sensor_id;sensor_type;location;lat;lon;timestamp;P1;durP1;ratioP1;P2;durP2;ratioP2
42096;SDS011;27754;45.414;11.084;2023-11-19T00:00:18;13.60;;;8.32;;
42096;SDS011;27754;45.414;11.084;2023-11-19T00:02:45;16.48;;;9.48;;
42096;SDS011;27754;45.414;11.084;2023-11-19T00:05:14;14.02;;;9.18;;
42096;SDS011;27754;45.414;11.084;2023-11-19T00:07:41;11.65;;;8.35;;
42096;SDS011;27754;45.414;11.084;2023-11-19T00:10:09;10.82;;;7.10;;
42096;SDS011;27754;45.414;11.084;2023-11-19T00:12:41;11.88;;;7.93;;
42096;SDS011;27754;45.414;11.084;2023-11-19T00:15:09;14.48;;;7.63;;
42096;SDS011;27754;45.414;11.084;2023-11-19T00:17:44;11.45;;;7.07;;
42096;SDS011;27754;45.414;11.084;2023-11-19T00:20:12;12.30;;;7.68;;
42096;SDS011;27754;45.414;11.084;2023-11-19T00:22:46;13.93;;;7.07;;
42096;SDS011;27754;45.414;11.084;2023-11-19T00:25:16;11.20;;;7.22;;
42096;SDS011;27754;45.414;11.084;2023-11-19T00:27:44;12.55;;;7.25;;
42096;SDS011;27754;45.414;11.084;2023-11-19T00:30:11;9.20;;;6.72;;
42096;SDS011;27754;45.414;11.084;2023-11-19T00:32:40;10.55;;;6.65;;
42096;SDS011;27754;45.414;11.084;2023-11-19T00:35:08;10.23;;;7.25;;
42096;SDS011;27754;45.414;11.084;2023-11-19T00:37:36;12.68;;;7.43;;
42096;SDS011;27754;45.414;11.084;2023-11-19T00:40:04;10.50;;;6.53;;
42096;SDS011;27754;45.414;11.084;2023-11-19T00:42:32;11.10;;;6.75;;
42096;SDS011;27754;45.414;11.084;2023-11-19T00:44:59;12.02;;;6.63;;
42096;SDS011;27754;45.414;11.084;2023-11-19T00:47:28;10.90;;;6.63;;
42096;SDS011;27754;45.414;11.084;2023-11-19T00:49:55;12.07;;;6.55;;
42096;SDS011;27754;45.414;11.084;2023-11-19T00:52:22;15.30;;;7.53;;
42096;SDS011;27754;45.414;11.084;2023-11-19T00:54:49;11.25;;;7.13;;
42096;SDS011;27754;45.414;11.084;2023-11-19T00:57:16;18.48;;;6.90;;
42096;SDS011;27754;45.414;11.084;2023-11-19T00:59:43;11.52;;;6.22;;
42096;SDS011;27754;45.414;11.084;2023-11-19T01:02:10;10.77;;;6.40;;
42096;SDS011;27754;45.414;11.084;2023-11-19T01:04:37;11.95;;;7.28;;
42096;SDS011;27754;45.414;11.084;2023-11-19T01:07:05;16.48;;;6.25;;
42096;SDS011;27754;45.414;11.084;2023-11-19T01:09:32;8.75;;;5.68;;
42096;SDS011;27754;45.414;11.084;2023-11-19T01:12:01;8.65;;;5.57;;
42096;SDS011;27754;45.414;11.084;2023-11-19T01:14:29;7.53;;;5.00;;
42096;SDS011;27754;45.414;11.084;2023-11-19T01:16:57;9.82;;;5.40;;
42096;SDS011;27754;45.414;11.084;2023-11-19T01:19:24;9.57;;;6.38;;
42096;SDS011;27754;45.414;11.084;2023-11-19T01:21:52;10.07;;;6.10;;
42096;SDS011;27754;45.414;11.084;2023-11-19T01:24:20;11.30;;;6.25;;
42096;SDS011;27754;45.414;11.084;2023-11-19T01:26:47;12.88;;;6.28;;
42096;SDS011;27754;45.414;11.084;2023-11-19T01:29:15;10.65;;;5.70;;
42096;SDS011;27754;45.414;11.084;2023-11-19T01:31:42;11.70;;;6.13;;
42096;SDS011;27754;45.414;11.084;2023-11-19T01:34:10;10.07;;;5.32;;
42096;SDS011;27754;45.414;11.084;2023-11-19T01:36:38;10.43;;;5.43;;
42096;SDS011;27754;45.414;11.084;2023-11-19T01:39:05;14.45;;;5.70;;
42096;SDS011;27754;45.414;11.084;2023-11-19T01:41:36;10.63;;;5.88;;
42096;SDS011;27754;45.414;11.084;2023-11-19T01:44:08;10.07;;;5.50;;
42096;SDS011;27754;45.414;11.084;2023-11-19T01:46:35;8.90;;;5.88;;
42096;SDS011;27754;45.414;11.084;2023-11-19T01:49:03;8.40;;;5.63;;
42096;SDS011;27754;45.414;11.084;2023-11-19T01:51:31;8.52;;;5.20;;
42096;SDS011;27754;45.414;11.084;2023-11-19T01:53:59;10.50;;;6.43;;
42096;SDS011;27754;45.414;11.084;2023-11-19T01:56:26;9.90;;;5.85;;
42096;SDS011;27754;45.414;11.084;2023-11-19T01:58:54;9.18;;;6.18;;
42096;SDS011;27754;45.414;11.084;2023-11-19T02:01:22;11.75;;;5.95;;
42096;SDS011;27754;45.414;11.084;2023-11-19T02:03:49;9.68;;;5.80;;
42096;SDS011;27754;45.414;11.084;2023-11-19T02:06:18;10.80;;;6.45;;
42096;SDS011;27754;45.414;11.084;2023-11-19T02:08:45;9.98;;;7.18;;
42096;SDS011;27754;45.414;11.084;2023-11-19T02:11:12;12.77;;;7.85;;
42096;SDS011;27754;45.414;11.084;2023-11-19T02:13:39;13.88;;;7.95;;
42096;SDS011;27754;45.414;11.084;2023-11-19T02:16:08;11.82;;;7.60;;
42096;SDS011;27754;45.414;11.084;2023-11-19T02:18:36;12.05;;;7.50;;
42096;SDS011;27754;45.414;11.084;2023-11-19T02:21:03;14.30;;;8.90;;
42096;SDS011;27754;45.414;11.084;2023-11-19T02:23:31;14.73;;;8.20;;
42096;SDS011;27754;45.414;11.084;2023-11-19T02:26:03;12.27;;;8.65;;
42096;SDS011;27754;45.414;11.084;2023-11-19T02:28:41;13.80;;;8.60;;
42096;SDS011;27754;45.414;11.084;2023-11-19T02:31:09;14.63;;;8.65;;
42096;SDS011;27754;45.414;11.084;2023-11-19T02:33:38;16.58;;;8.65;;
42096;SDS011;27754;45.414;11.084;2023-11-19T02:36:05;17.63;;;9.57;;
42096;SDS011;27754;45.414;11.084;2023-11-19T02:38:34;13.43;;;8.77;;
42096;SDS011;27754;45.414;11.084;2023-11-19T02:41:08;16.55;;;9.05;;
42096;SDS011;27754;45.414;11.084;2023-11-19T02:43:36;15.18;;;9.20;;
42096;SDS011;27754;45.414;11.084;2023-11-19T02:46:04;16.70;;;9.25;;
42096;SDS011;27754;45.414;11.084;2023-11-19T02:48:36;17.33;;;9.18;;
42096;SDS011;27754;45.414;11.084;2023-11-19T02:51:05;14.45;;;9.77;;
42096;SDS011;27754;45.414;11.084;2023-11-19T02:53:36;15.82;;;9.32;;
42096;SDS011;27754;45.414;11.084;2023-11-19T02:56:05;14.50;;;8.80;;
42096;SDS011;27754;45.414;11.084;2023-11-19T02:58:44;18.98;;;11.90;;
42096;SDS011;27754;45.414;11.084;2023-11-19T03:01:11;15.77;;;9.00;;
42096;SDS011;27754;45.414;11.084;2023-11-19T03:03:50;18.45;;;9.20;;
42096;SDS011;27754;45.414;11.084;2023-11-19T03:06:24;19.90;;;9.90;;
42096;SDS011;27754;45.414;11.084;2023-11-19T03:08:52;15.70;;;10.15;;
42096;SDS011;27754;45.414;11.084;2023-11-19T03:11:19;18.77;;;10.00;;
42096;SDS011;27754;45.414;11.084;2023-11-19T03:13:46;17.65;;;10.55;;
42096;SDS011;27754;45.414;11.084;2023-11-19T03:16:13;22.52;;;11.18;;
42096;SDS011;27754;45.414;11.084;2023-11-19T03:18:40;19.08;;;10.80;;
42096;SDS011;27754;45.414;11.084;2023-11-19T03:21:08;20.83;;;11.40;;
42096;SDS011;27754;45.414;11.084;2023-11-19T03:23:35;23.15;;;11.18;;
42096;SDS011;27754;45.414;11.084;2023-11-19T03:26:03;19.10;;;10.77;;
42096;SDS011;27754;45.414;11.084;2023-11-19T03:28:32;23.27;;;10.55;;
42096;SDS011;27754;45.414;11.084;2023-11-19T03:30:59;17.55;;;10.10;;
42096;SDS011;27754;45.414;11.084;2023-11-19T03:33:26;16.30;;;10.10;;
42096;SDS011;27754;45.414;11.084;2023-11-19T03:35:55;14.52;;;9.82;;
42096;SDS011;27754;45.414;11.084;2023-11-19T03:38:23;16.30;;;9.35;;
42096;SDS011;27754;45.414;11.084;2023-11-19T03:40:53;15.55;;;9.63;;
42096;SDS011;27754;45.414;11.084;2023-11-19T03:43:20;15.27;;;9.18;;
42096;SDS011;27754;45.414;11.084;2023-11-19T03:45:47;15.93;;;8.98;;
42096;SDS011;27754;45.414;11.084;2023-11-19T03:48:14;19.52;;;10.32;;
42096;SDS011;27754;45.414;11.084;2023-11-19T03:50:45;14.48;;;9.30;;
42096;SDS011;27754;45.414;11.084;2023-11-19T03:53:12;17.88;;;9.88;;
42096;SDS011;27754;45.414;11.084;2023-11-19T03:55:40;14.85;;;9.65;;
42096;SDS011;27754;45.414;11.084;2023-11-19T03:58:07;16.60;;;9.32;;
42096;SDS011;27754;45.414;11.084;2023-11-19T04:00:34;14.85;;;9.05;;
42096;SDS011;27754;45.414;11.084;2023-11-19T04:03:01;14.85;;;8.50;;
42096;SDS011;27754;45.414;11.084;2023-11-19T04:05:29;17.70;;;8.68;;
42096;SDS011;27754;45.414;11.084;2023-11-19T04:07:56;16.55;;;8.60;;
42096;SDS011;27754;45.414;11.084;2023-11-19T04:10:23;15.75;;;8.50;;
42096;SDS011;27754;45.414;11.084;2023-11-19T04:12:50;13.15;;;7.35;;
42096;SDS011;27754;45.414;11.084;2023-11-19T04:15:17;12.27;;;8.77;;
42096;SDS011;27754;45.414;11.084;2023-11-19T04:17:44;16.25;;;8.55;;
42096;SDS011;27754;45.414;11.084;2023-11-19T04:20:11;15.07;;;9.02;;
42096;SDS011;27754;45.414;11.084;2023-11-19T04:22:41;14.50;;;8.80;;
42096;SDS011;27754;45.414;11.084;2023-11-19T04:25:08;15.57;;;9.35;;
42096;SDS011;27754;45.414;11.084;2023-11-19T04:27:36;16.25;;;9.15;;
42096;SDS011;27754;45.414;11.084;2023-11-19T04:30:03;12.43;;;9.20;;
42096;SDS011;27754;45.414;11.084;2023-11-19T04:32:32;14.18;;;8.90;;
42096;SDS011;27754;45.414;11.084;2023-11-19T04:34:59;16.38;;;9.48;;
42096;SDS011;27754;45.414;11.084;2023-11-19T04:37:26;15.35;;;8.90;;
42096;SDS011;27754;45.414;11.084;2023-11-19T04:39:53;15.70;;;9.65;;
42096;SDS011;27754;45.414;11.084;2023-11-19T04:42:22;14.40;;;9.63;;
42096;SDS011;27754;45.414;11.084;2023-11-19T04:44:49;16.95;;;9.68;;
42096;SDS011;27754;45.414;11.084;2023-11-19T04:47:16;12.65;;;8.23;;
42096;SDS011;27754;45.414;11.084;2023-11-19T04:49:43;10.50;;;7.25;;
42096;SDS011;27754;45.414;11.084;2023-11-19T04:52:11;18.25;;;8.38;;
42096;SDS011;27754;45.414;11.084;2023-11-19T04:54:42;17.42;;;9.50;;
42096;SDS011;27754;45.414;11.084;2023-11-19T04:57:12;19.95;;;10.55;;
42096;SDS011;27754;45.414;11.084;2023-11-19T04:59:39;14.38;;;8.52;;
42096;SDS011;27754;45.414;11.084;2023-11-19T05:02:08;14.73;;;8.50;;
42096;SDS011;27754;45.414;11.084;2023-11-19T05:04:35;15.18;;;8.98;;
42096;SDS011;27754;45.414;11.084;2023-11-19T05:07:04;16.15;;;9.23;;
42096;SDS011;27754;45.414;11.084;2023-11-19T05:09:31;16.45;;;8.82;;
42096;SDS011;27754;45.414;11.084;2023-11-19T05:11:58;14.63;;;8.50;;
42096;SDS011;27754;45.414;11.084;2023-11-19T05:14:25;13.18;;;8.80;;
42096;SDS011;27754;45.414;11.084;2023-11-19T05:16:52;11.45;;;7.90;;
42096;SDS011;27754;45.414;11.084;2023-11-19T05:19:19;13.98;;;8.85;;
42096;SDS011;27754;45.414;11.084;2023-11-19T05:21:46;13.65;;;8.48;;
42096;SDS011;27754;45.414;11.084;2023-11-19T05:24:13;13.00;;;7.88;;
42096;SDS011;27754;45.414;11.084;2023-11-19T05:26:40;11.00;;;7.85;;
42096;SDS011;27754;45.414;11.084;2023-11-19T05:29:07;10.93;;;7.93;;
42096;SDS011;27754;45.414;11.084;2023-11-19T05:31:35;14.20;;;8.40;;
42096;SDS011;27754;45.414;11.084;2023-11-19T05:34:03;12.85;;;8.23;;
42096;SDS011;27754;45.414;11.084;2023-11-19T05:36:31;14.02;;;8.45;;
42096;SDS011;27754;45.414;11.084;2023-11-19T05:38:58;14.32;;;8.60;;
42096;SDS011;27754;45.414;11.084;2023-11-19T05:41:25;13.05;;;8.63;;
42096;SDS011;27754;45.414;11.084;2023-11-19T05:43:52;15.25;;;9.68;;
42096;SDS011;27754;45.414;11.084;2023-11-19T05:46:19;11.38;;;8.63;;
42096;SDS011;27754;45.414;11.084;2023-11-19T05:48:47;13.27;;;9.27;;
42096;SDS011;27754;45.414;11.084;2023-11-19T05:51:14;12.90;;;8.50;;
42096;SDS011;27754;45.414;11.084;2023-11-19T05:53:42;11.70;;;8.75;;
42096;SDS011;27754;45.414;11.084;2023-11-19T05:56:09;14.25;;;8.75;;
42096;SDS011;27754;45.414;11.084;2023-11-19T05:58:36;12.48;;;8.35;;
42096;SDS011;27754;45.414;11.084;2023-11-19T06:01:05;14.63;;;8.35;;
42096;SDS011;27754;45.414;11.084;2023-11-19T06:03:34;12.27;;;8.27;;
42096;SDS011;27754;45.414;11.084;2023-11-19T06:06:01;12.75;;;9.02;;
42096;SDS011;27754;45.414;11.084;2023-11-19T06:08:29;11.88;;;8.18;;
42096;SDS011;27754;45.414;11.084;2023-11-19T06:10:57;12.75;;;9.10;;
42096;SDS011;27754;45.414;11.084;2023-11-19T06:13:24;14.88;;;8.27;;
42096;SDS011;27754;45.414;11.084;2023-11-19T06:15:52;14.00;;;7.78;;
42096;SDS011;27754;45.414;11.084;2023-11-19T06:18:19;11.35;;;8.25;;
42096;SDS011;27754;45.414;11.084;2023-11-19T06:20:47;12.57;;;7.93;;
42096;SDS011;27754;45.414;11.084;2023-11-19T06:23:14;11.98;;;8.07;;
42096;SDS011;27754;45.414;11.084;2023-11-19T06:25:41;11.15;;;8.15;;
42096;SDS011;27754;45.414;11.084;2023-11-19T06:28:08;10.38;;;7.85;;
42096;SDS011;27754;45.414;11.084;2023-11-19T06:30:36;13.80;;;8.57;;
42096;SDS011;27754;45.414;11.084;2023-11-19T06:33:03;13.00;;;8.32;;
42096;SDS011;27754;45.414;11.084;2023-11-19T06:35:30;17.35;;;8.77;;
42096;SDS011;27754;45.414;11.084;2023-11-19T06:38:03;12.20;;;8.65;;
42096;SDS011;27754;45.414;11.084;2023-11-19T06:40:33;14.10;;;8.25;;
42096;SDS011;27754;45.414;11.084;2023-11-19T06:43:03;14.20;;;8.50;;
42096;SDS011;27754;45.414;11.084;2023-11-19T06:45:31;13.05;;;8.25;;
42096;SDS011;27754;45.414;11.084;2023-11-19T06:48:00;10.80;;;8.35;;
42096;SDS011;27754;45.414;11.084;2023-11-19T06:50:30;12.52;;;7.95;;
42096;SDS011;27754;45.414;11.084;2023-11-19T06:53:00;12.00;;;7.90;;
42096;SDS011;27754;45.414;11.084;2023-11-19T06:55:27;13.73;;;8.63;;
42096;SDS011;27754;45.414;11.084;2023-11-19T06:57:54;12.65;;;8.27;;
42096;SDS011;27754;45.414;11.084;2023-11-19T07:00:21;11.55;;;8.18;;
42096;SDS011;27754;45.414;11.084;2023-11-19T07:02:48;13.80;;;8.07;;
42096;SDS011;27754;45.414;11.084;2023-11-19T07:05:16;15.75;;;8.68;;
42096;SDS011;27754;45.414;11.084;2023-11-19T07:07:44;11.80;;;8.18;;
42096;SDS011;27754;45.414;11.084;2023-11-19T07:10:13;15.10;;;9.13;;
42096;SDS011;27754;45.414;11.084;2023-11-19T07:12:40;12.77;;;8.52;;
42096;SDS011;27754;45.414;11.084;2023-11-19T07:15:08;11.30;;;8.68;;
42096;SDS011;27754;45.414;11.084;2023-11-19T07:17:35;15.65;;;9.07;;
42096;SDS011;27754;45.414;11.084;2023-11-19T07:20:03;10.75;;;8.32;;
42096;SDS011;27754;45.414;11.084;2023-11-19T07:22:32;17.30;;;9.00;;
42096;SDS011;27754;45.414;11.084;2023-11-19T07:24:59;17.20;;;8.80;;
42096;SDS011;27754;45.414;11.084;2023-11-19T07:27:26;13.85;;;9.32;;
42096;SDS011;27754;45.414;11.084;2023-11-19T07:29:54;13.55;;;9.80;;
42096;SDS011;27754;45.414;11.084;2023-11-19T07:32:21;15.57;;;9.75;;
42096;SDS011;27754;45.414;11.084;2023-11-19T07:34:48;15.30;;;10.00;;
42096;SDS011;27754;45.414;11.084;2023-11-19T07:37:15;16.83;;;10.93;;
42096;SDS011;27754;45.414;11.084;2023-11-19T07:39:43;18.50;;;11.57;;
42096;SDS011;27754;45.414;11.084;2023-11-19T07:42:10;17.45;;;11.13;;
42096;SDS011;27754;45.414;11.084;2023-11-19T07:44:37;19.70;;;12.50;;
42096;SDS011;27754;45.414;11.084;2023-11-19T07:47:04;21.38;;;13.82;;
42096;SDS011;27754;45.414;11.084;2023-11-19T07:49:31;20.33;;;13.85;;
42096;SDS011;27754;45.414;11.084;2023-11-19T07:51:58;20.70;;;14.38;;
42096;SDS011;27754;45.414;11.084;2023-11-19T07:54:25;18.35;;;14.00;;
42096;SDS011;27754;45.414;11.084;2023-11-19T07:56:52;20.67;;;13.52;;
42096;SDS011;27754;45.414;11.084;2023-11-19T07:59:20;17.10;;;12.18;;
42096;SDS011;27754;45.414;11.084;2023-11-19T08:01:47;19.52;;;13.32;;
42096;SDS011;27754;45.414;11.084;2023-11-19T08:04:14;18.20;;;12.25;;
42096;SDS011;27754;45.414;11.084;2023-11-19T08:06:42;17.90;;;12.15;;
42096;SDS011;27754;45.414;11.084;2023-11-19T08:09:08;23.00;;;14.05;;
42096;SDS011;27754;45.414;11.084;2023-11-19T08:11:41;19.45;;;13.05;;
42096;SDS011;27754;45.414;11.084;2023-11-19T08:14:09;21.52;;;14.05;;
42096;SDS011;27754;45.414;11.084;2023-11-19T08:16:36;21.23;;;13.55;;
42096;SDS011;27754;45.414;11.084;2023-11-19T08:19:04;25.25;;;14.85;;
42096;SDS011;27754;45.414;11.084;2023-11-19T08:21:31;22.88;;;14.10;;
42096;SDS011;27754;45.414;11.084;2023-11-19T08:23:58;21.05;;;12.52;;
42096;SDS011;27754;45.414;11.084;2023-11-19T08:26:25;26.73;;;13.05;;
42096;SDS011;27754;45.414;11.084;2023-11-19T08:28:52;17.48;;;12.43;;
42096;SDS011;27754;45.414;11.084;2023-11-19T08:31:19;17.00;;;12.40;;
42096;SDS011;27754;45.414;11.084;2023-11-19T08:33:46;18.25;;;12.90;;
42096;SDS011;27754;45.414;11.084;2023-11-19T08:36:16;16.98;;;12.25;;
42096;SDS011;27754;45.414;11.084;2023-11-19T08:38:44;18.58;;;13.15;;
42096;SDS011;27754;45.414;11.084;2023-11-19T08:41:11;18.83;;;12.45;;
42096;SDS011;27754;45.414;11.084;2023-11-19T08:43:38;19.48;;;14.00;;
42096;SDS011;27754;45.414;11.084;2023-11-19T08:46:11;20.23;;;13.70;;
42096;SDS011;27754;45.414;11.084;2023-11-19T08:48:39;21.67;;;14.07;;
42096;SDS011;27754;45.414;11.084;2023-11-19T08:51:06;19.25;;;12.52;;
42096;SDS011;27754;45.414;11.084;2023-11-19T08:53:33;19.30;;;13.63;;
42096;SDS011;27754;45.414;11.084;2023-11-19T08:56:01;19.08;;;13.90;;
42096;SDS011;27754;45.414;11.084;2023-11-19T08:58:29;19.85;;;13.55;;
42096;SDS011;27754;45.414;11.084;2023-11-19T09:00:57;22.20;;;13.27;;
42096;SDS011;27754;45.414;11.084;2023-11-19T09:03:25;18.63;;;13.10;;
42096;SDS011;27754;45.414;11.084;2023-11-19T09:05:57;22.77;;;13.25;;
42096;SDS011;27754;45.414;11.084;2023-11-19T09:08:23;17.33;;;12.98;;
42096;SDS011;27754;45.414;11.084;2023-11-19T09:10:51;21.90;;;13.63;;
42096;SDS011;27754;45.414;11.084;2023-11-19T09:13:17;18.75;;;13.60;;
42096;SDS011;27754;45.414;11.084;2023-11-19T09:15:44;19.00;;;12.95;;
42096;SDS011;27754;45.414;11.084;2023-11-19T09:18:12;18.50;;;12.93;;
42096;SDS011;27754;45.414;11.084;2023-11-19T09:20:39;18.70;;;13.77;;
42096;SDS011;27754;45.414;11.084;2023-11-19T09:23:06;19.15;;;13.13;;
42096;SDS011;27754;45.414;11.084;2023-11-19T09:25:35;21.73;;;13.75;;
42096;SDS011;27754;45.414;11.084;2023-11-19T09:28:05;17.38;;;12.38;;
42096;SDS011;27754;45.414;11.084;2023-11-19T09:30:32;19.40;;;13.55;;
42096;SDS011;27754;45.414;11.084;2023-11-19T09:33:00;18.70;;;13.05;;
42096;SDS011;27754;45.414;11.084;2023-11-19T09:35:28;18.98;;;12.60;;
42096;SDS011;27754;45.414;11.084;2023-11-19T09:37:55;18.50;;;12.48;;
42096;SDS011;27754;45.414;11.084;2023-11-19T09:40:22;17.85;;;12.02;;
42096;SDS011;27754;45.414;11.084;2023-11-19T09:42:50;20.25;;;12.68;;
42096;SDS011;27754;45.414;11.084;2023-11-19T09:45:17;19.20;;;12.45;;
42096;SDS011;27754;45.414;11.084;2023-11-19T09:47:47;19.88;;;12.45;;
42096;SDS011;27754;45.414;11.084;2023-11-19T09:50:17;23.35;;;13.15;;
42096;SDS011;27754;45.414;11.084;2023-11-19T09:52:45;20.05;;;12.20;;
42096;SDS011;27754;45.414;11.084;2023-11-19T09:55:13;16.73;;;11.18;;
42096;SDS011;27754;45.414;11.084;2023-11-19T09:57:41;18.20;;;11.85;;
42096;SDS011;27754;45.414;11.084;2023-11-19T10:00:10;25.40;;;15.90;;
42096;SDS011;27754;45.414;11.084;2023-11-19T10:02:41;20.75;;;14.57;;
42096;SDS011;27754;45.414;11.084;2023-11-19T10:05:13;21.73;;;13.57;;
42096;SDS011;27754;45.414;11.084;2023-11-19T10:07:42;53.58;;;28.73;;
42096;SDS011;27754;45.414;11.084;2023-11-19T10:10:09;29.40;;;18.92;;
42096;SDS011;27754;45.414;11.084;2023-11-19T10:12:40;64.80;;;32.47;;
42096;SDS011;27754;45.414;11.084;2023-11-19T10:15:23;23.88;;;16.52;;
42096;SDS011;27754;45.414;11.084;2023-11-19T10:17:56;21.58;;;14.55;;
42096;SDS011;27754;45.414;11.084;2023-11-19T10:20:24;21.00;;;14.32;;
42096;SDS011;27754;45.414;11.084;2023-11-19T10:22:55;19.45;;;13.63;;
42096;SDS011;27754;45.414;11.084;2023-11-19T10:25:22;19.88;;;14.00;;
42096;SDS011;27754;45.414;11.084;2023-11-19T10:27:51;21.40;;;14.13;;
42096;SDS011;27754;45.414;11.084;2023-11-19T10:30:22;20.65;;;14.00;;
42096;SDS011;27754;45.414;11.084;2023-11-19T10:36:03;19.63;;;14.18;;
42096;SDS011;27754;45.414;11.084;2023-11-19T10:38:29;23.02;;;15.43;;
42096;SDS011;27754;45.414;11.084;2023-11-19T10:40:57;20.42;;;14.20;;
42096;SDS011;27754;45.414;11.084;2023-11-19T10:43:24;23.10;;;15.75;;
42096;SDS011;27754;45.414;11.084;2023-11-19T10:45:52;21.10;;;14.73;;
42096;SDS011;27754;45.414;11.084;2023-11-19T10:48:19;20.90;;;15.23;;
42096;SDS011;27754;45.414;11.084;2023-11-19T10:50:49;22.10;;;13.98;;
42096;SDS011;27754;45.414;11.084;2023-11-19T10:53:21;22.27;;;14.32;;
42096;SDS011;27754;45.414;11.084;2023-11-19T10:55:53;20.98;;;14.38;;
42096;SDS011;27754;45.414;11.084;2023-11-19T10:58:23;22.67;;;15.43;;
42096;SDS011;27754;45.414;11.084;2023-11-19T11:00:52;26.13;;;16.33;;
42096;SDS011;27754;45.414;11.084;2023-11-19T11:03:22;26.05;;;16.67;;
42096;SDS011;27754;45.414;11.084;2023-11-19T11:05:53;28.63;;;15.38;;
42096;SDS011;27754;45.414;11.084;2023-11-19T11:08:20;24.27;;;15.50;;
42096;SDS011;27754;45.414;11.084;2023-11-19T11:10:54;24.17;;;15.80;;
42096;SDS011;27754;45.414;11.084;2023-11-19T11:13:24;22.20;;;15.07;;
42096;SDS011;27754;45.414;11.084;2023-11-19T11:15:55;20.95;;;14.85;;
42096;SDS011;27754;45.414;11.084;2023-11-19T11:18:26;20.67;;;15.18;;
42096;SDS011;27754;45.414;11.084;2023-11-19T11:20:54;22.92;;;17.00;;
42096;SDS011;27754;45.414;11.084;2023-11-19T11:23:36;22.73;;;15.68;;
42096;SDS011;27754;45.414;11.084;2023-11-19T11:32:13;22.45;;;16.02;;
42096;SDS011;27754;45.414;11.084;2023-11-19T11:37:50;21.67;;;16.00;;
42096;SDS011;27754;45.414;11.084;2023-11-19T11:40:25;20.15;;;14.88;;
42096;SDS011;27754;45.414;11.084;2023-11-19T11:42:53;21.60;;;15.43;;
42096;SDS011;27754;45.414;11.084;2023-11-19T11:45:34;21.83;;;15.82;;
42096;SDS011;27754;45.414;11.084;2023-11-19T11:48:06;21.23;;;15.23;;
42096;SDS011;27754;45.414;11.084;2023-11-19T11:50:48;20.80;;;15.63;;
42096;SDS011;27754;45.414;11.084;2023-11-19T11:53:16;21.63;;;15.63;;
42096;SDS011;27754;45.414;11.084;2023-11-19T11:58:21;23.92;;;15.55;;
42096;SDS011;27754;45.414;11.084;2023-11-19T12:00:52;18.23;;;14.70;;
42096;SDS011;27754;45.414;11.084;2023-11-19T12:03:20;19.23;;;14.93;;
42096;SDS011;27754;45.414;11.084;2023-11-19T12:05:48;22.17;;;16.20;;
42096;SDS011;27754;45.414;11.084;2023-11-19T12:08:18;18.88;;;14.50;;
42096;SDS011;27754;45.414;11.084;2023-11-19T12:10:53;17.27;;;14.10;;
42096;SDS011;27754;45.414;11.084;2023-11-19T12:13:24;28.33;;;15.38;;
42096;SDS011;27754;45.414;11.084;2023-11-19T12:16:09;22.17;;;14.82;;
42096;SDS011;27754;45.414;11.084;2023-11-19T12:18:38;20.80;;;14.88;;
42096;SDS011;27754;45.414;11.084;2023-11-19T12:21:06;19.52;;;14.82;;
42096;SDS011;27754;45.414;11.084;2023-11-19T12:23:43;23.70;;;14.65;;
42096;SDS011;27754;45.414;11.084;2023-11-19T12:26:31;20.50;;;14.35;;
42096;SDS011;27754;45.414;11.084;2023-11-19T12:29:02;20.95;;;13.65;;
42096;SDS011;27754;45.414;11.084;2023-11-19T12:31:34;21.23;;;14.57;;
42096;SDS011;27754;45.414;11.084;2023-11-19T12:34:05;20.38;;;13.85;;
42096;SDS011;27754;45.414;11.084;2023-11-19T12:36:33;19.85;;;13.98;;
42096;SDS011;27754;45.414;11.084;2023-11-19T12:39:01;19.40;;;13.45;;
42096;SDS011;27754;45.414;11.084;2023-11-19T12:41:28;18.17;;;13.77;;
42096;SDS011;27754;45.414;11.084;2023-11-19T12:44:08;17.85;;;13.35;;
42096;SDS011;27754;45.414;11.084;2023-11-19T12:46:36;19.10;;;14.18;;
42096;SDS011;27754;45.414;11.084;2023-11-19T12:49:03;19.40;;;14.18;;
42096;SDS011;27754;45.414;11.084;2023-11-19T12:51:32;20.77;;;15.10;;
42096;SDS011;27754;45.414;11.084;2023-11-19T12:54:00;18.45;;;14.23;;
42096;SDS011;27754;45.414;11.084;2023-11-19T12:56:27;22.75;;;15.77;;
42096;SDS011;27754;45.414;11.084;2023-11-19T12:58:54;29.63;;;18.65;;
42096;SDS011;27754;45.414;11.084;2023-11-19T13:01:21;23.00;;;16.67;;
42096;SDS011;27754;45.414;11.084;2023-11-19T13:03:48;19.58;;;15.93;;
42096;SDS011;27754;45.414;11.084;2023-11-19T13:06:17;22.55;;;16.48;;
42096;SDS011;27754;45.414;11.084;2023-11-19T13:08:48;24.90;;;17.20;;
42096;SDS011;27754;45.414;11.084;2023-11-19T13:11:34;24.50;;;16.55;;
42096;SDS011;27754;45.414;11.084;2023-11-19T13:14:03;24.75;;;16.45;;
42096;SDS011;27754;45.414;11.084;2023-11-19T13:16:31;21.92;;;16.25;;
42096;SDS011;27754;45.414;11.084;2023-11-19T13:18:59;24.48;;;16.23;;
42096;SDS011;27754;45.414;11.084;2023-11-19T13:21:29;23.85;;;17.95;;
42096;SDS011;27754;45.414;11.084;2023-11-19T13:23:56;20.00;;;15.15;;
42096;SDS011;27754;45.414;11.084;2023-11-19T13:26:24;19.00;;;15.05;;
42096;SDS011;27754;45.414;11.084;2023-11-19T13:28:51;22.13;;;15.52;;
42096;SDS011;27754;45.414;11.084;2023-11-19T13:31:18;18.50;;;15.30;;
42096;SDS011;27754;45.414;11.084;2023-11-19T13:33:45;21.02;;;15.82;;
42096;SDS011;27754;45.414;11.084;2023-11-19T13:36:12;19.80;;;15.13;;
42096;SDS011;27754;45.414;11.084;2023-11-19T13:38:42;23.00;;;15.95;;
42096;SDS011;27754;45.414;11.084;2023-11-19T13:41:11;23.77;;;18.02;;
42096;SDS011;27754;45.414;11.084;2023-11-19T13:43:39;23.42;;;16.80;;
42096;SDS011;27754;45.414;11.084;2023-11-19T13:46:06;23.02;;;17.48;;
42096;SDS011;27754;45.414;11.084;2023-11-19T13:48:37;53.85;;;35.38;;
42096;SDS011;27754;45.414;11.084;2023-11-19T13:51:04;39.72;;;26.15;;
42096;SDS011;27754;45.414;11.084;2023-11-19T13:53:32;27.27;;;17.88;;
42096;SDS011;27754;45.414;11.084;2023-11-19T13:56:17;21.35;;;16.42;;
42096;SDS011;27754;45.414;11.084;2023-11-19T13:58:44;22.02;;;16.20;;
42096;SDS011;27754;45.414;11.084;2023-11-19T14:01:11;22.23;;;15.57;;
42096;SDS011;27754;45.414;11.084;2023-11-19T14:03:39;22.00;;;16.40;;
42096;SDS011;27754;45.414;11.084;2023-11-19T14:06:08;20.83;;;15.75;;
42096;SDS011;27754;45.414;11.084;2023-11-19T14:08:35;20.55;;;16.75;;
42096;SDS011;27754;45.414;11.084;2023-11-19T14:11:02;21.38;;;16.65;;
42096;SDS011;27754;45.414;11.084;2023-11-19T14:13:30;21.10;;;16.42;;
42096;SDS011;27754;45.414;11.084;2023-11-19T14:15:57;22.77;;;17.05;;
42096;SDS011;27754;45.414;11.084;2023-11-19T14:18:24;20.40;;;16.55;;
42096;SDS011;27754;45.414;11.084;2023-11-19T14:20:51;19.10;;;15.05;;
42096;SDS011;27754;45.414;11.084;2023-11-19T14:23:18;24.58;;;16.38;;
42096;SDS011;27754;45.414;11.084;2023-11-19T14:25:45;27.38;;;21.30;;
42096;SDS011;27754;45.414;11.084;2023-11-19T14:28:12;33.35;;;24.83;;
42096;SDS011;27754;45.414;11.084;2023-11-19T14:30:39;33.88;;;25.55;;
42096;SDS011;27754;45.414;11.084;2023-11-19T14:33:07;29.23;;;20.65;;
42096;SDS011;27754;45.414;11.084;2023-11-19T14:35:34;45.17;;;34.97;;
42096;SDS011;27754;45.414;11.084;2023-11-19T14:38:01;34.50;;;26.17;;